Time;durP1;ratioP1;P1;durP2;ratioP2;P2;SDS_P1;SDS_P2;PMS_P1;PMS_P2;Temp;Humidity;BMP_temperature;BMP_pressure;BME280_temperature;BME280_humidity;BME280_pressure;Samples;Min_cycle;Max_cycle;Signal;HPM_P1;HPM_P2
2023/03/18 07:14:57;;;;;;;2.47;1.92;;;15.80;83.50;;;;;;5740890;23;20300;-78
2023/03/18 07:17:29;;;;;;;2.90;1.65;;;16.30;79.20;;;;;;4998981;28;20277;-77
2023/03/18 07:19:57;;;;;;;1.60;1.60;;;;;;;;;;5000374;28;20195;-76
2023/03/18 07:28:46;;;;;;;1.30;1.30;;;18.80;60.90;;;;;;5000693;28;20225;-75
2023/03/18 07:35:16;;;;;;;2.10;2.00;;;20.00;56.90;;;;;;5000868;28;20218;-75
2023/03/18 07:37:44;;;;;;;2.83;2.63;;;20.70;58.90;;;;;;4986761;28;20230;-77
2023/03/18 07:40:14;;;;;;;3.70;2.45;;;21.20;55.00;;;;;;5004317;28;20194;-76
2023/03/18 07:42:40;;;;;;;1.88;1.77;;;20.70;56.80;;;;;;4987790;28;20198;-76
2023/03/18 07:45:09;;;;;;;1.80;1.80;;;21.00;59.70;;;;;;5003055;28;20218;-77
2023/03/18 07:47:37;;;;;;;2.40;2.20;;;21.30;56.70;;;;;;5004044;28;20206;-76
2023/03/18 07:50:04;;;;;;;2.83;2.40;;;21.40;56.50;;;;;;5001325;28;20222;-75
2023/03/18 07:52:31;;;;;;;5.30;3.05;;;21.70;57.20;;;;;;5001945;28;20204;-76
2023/03/18 07:54:57;;;;;;;3.85;3.55;;;21.90;59.30;;;;;;5001353;28;20716;-76
2023/03/18 07:57:24;;;;;;;3.33;3.08;;;21.60;58.90;;;;;;4998587;28;20210;-76
2023/03/18 07:59:51;;;;;;;3.50;3.13;;;21.50;58.40;;;;;;4996710;28;20199;-76
2023/03/18 08:02:19;;;;;;;3.25;2.97;;;21.50;55.40;;;;;;4996471;28;20205;-76
2023/03/18 08:04:47;;;;;;;3.03;2.70;;;21.50;54.10;;;;;;4996319;28;20218;-76
2023/03/18 08:07:14;;;;;;;2.70;2.50;;;21.70;53.20;;;;;;4996146;28;20724;-76
2023/03/18 08:09:41;;;;;;;2.85;2.55;;;22.10;50.90;;;;;;4996197;28;20218;-76
2023/03/18 08:12:08;;;;;;;2.28;2.13;;;;;;;;;;4996281;28;20210;-76
2023/03/18 08:14:36;;;;;;;2.80;2.45;;;;;;;;;;4996752;28;20233;-76
2023/03/18 08:17:03;;;;;;;2.65;2.45;;;;;;;;;;4996051;28;20225;-76
2023/03/18 08:19:30;;;;;;;4.00;2.72;;;;;;;;;;4996255;28;20253;-74
2023/03/18 08:21:59;;;;;;;2.70;2.50;;;;;;;;;;4996100;28;20209;-75
2023/03/18 08:24:26;;;;;;;2.58;2.47;;;;;;;;;;4995573;28;20563;-76
2023/03/18 08:26:53;;;;;;;2.08;1.98;;;;;;;;;;4996034;28;20202;-73
2023/03/18 08:29:20;;;;;;;2.35;2.25;;;;;;;;;;4995915;28;20217;-74
2023/03/18 08:31:48;;;;;;;2.40;2.25;;;;;;;;;;4995723;28;20198;-73
2023/03/18 08:34:15;;;;;;;2.72;2.53;;;;;;;;;;4995815;28;20229;-74
2023/03/18 08:36:42;;;;;;;2.90;2.70;;;;;;;;;;4995912;28;20205;-74
2023/03/18 08:39:10;;;;;;;5.20;3.08;;;;;;;;;;4995674;28;20229;-74
2023/03/18 08:41:37;;;;;;;3.50;3.20;;;;;;;;;;4995752;28;20209;-74
2023/03/18 08:44:07;;;;;;;4.00;3.70;;;;;;;;;;4995647;28;20225;-74
2023/03/18 08:46:34;;;;;;;3.88;3.58;;;;;;;;;;4995392;28;20202;-72
2023/03/18 08:49:01;;;;;;;5.07;4.43;;;;;;;;;;4995577;28;20222;-73
2023/03/18 08:51:28;;;;;;;5.40;4.50;;;;;;;;;;4995860;28;20233;-73
2023/03/18 08:53:56;;;;;;;6.85;4.28;;;;;;;;;;4995499;28;20272;-73
2023/03/18 08:56:24;;;;;;;4.68;3.83;;;;;;;;;;4995472;28;20209;-73
2023/03/18 08:58:51;;;;;;;4.75;4.13;;;;;;;;;;4995629;28;20203;-71
2023/03/18 09:01:20;;;;;;;3.92;3.47;;;;;;;;;;4995383;28;20210;-68
2023/03/18 09:03:47;;;;;;;6.18;4.35;;;;;;;;;;4995220;28;20269;-70
2023/03/18 09:06:15;;;;;;;9.70;5.13;;;;;;;;;;4995498;28;20206;-70
2023/03/18 09:08:42;;;;;;;5.95;4.78;;;;;;;;;;4995193;28;20210;-70
2023/03/18 09:11:10;;;;;;;7.72;4.40;;;;;;;;;;4995509;28;20237;-68
2023/03/18 09:13:38;;;;;;;5.40;3.70;;;;;;;;;;4994816;28;20670;-67
2023/03/18 09:16:06;;;;;;;3.20;2.88;;;;;;;;;;4995180;28;20227;-68
2023/03/18 09:18:34;;;;;;;4.22;3.15;;;;;;;;;;4994617;28;20206;-72
2023/03/18 09:21:02;;;;;;;3.10;2.78;;;;;;;;;;4994980;28;20269;-72
2023/03/18 09:23:29;;;;;;;2.47;2.30;;;;;;;;;;4998981;28;20217;-67
2023/03/18 09:25:57;;;;;;;3.85;2.95;;;;;;;;;;5002697;28;20697;-71
2023/03/18 09:28:24;;;;;;;4.57;3.03;;;;;;;;;;4995074;28;20667;-70
2023/03/18 09:30:52;;;;;;;3.10;2.35;;;;;;;;;;5008654;28;20226;-71
2023/03/18 09:33:21;;;;;;;3.58;2.95;;;;;;;;;;5018759;28;20218;-71
2023/03/18 09:35:49;;;;;;;2.45;1.95;;;;;;;;;;5013407;28;20309;-73
2023/03/18 09:38:17;;;;;;;2.25;2.05;;;;;;;;;;4995509;28;20211;-73
2023/03/18 09:40:50;;;;;;;2.10;1.90;;;;;;;;;;4994637;28;20573;-74
2023/03/18 09:43:24;;;;;;;1.83;1.70;;;;;;;;;;4994573;28;20650;-72
2023/03/18 09:46:03;;;;;;;2.33;1.90;;;20.30;65.30;;;;;;4994911;28;20221;-73
2023/03/18 09:48:44;;;;;;;2.20;1.60;;;;;;;;;;4995252;28;20197;-76
2023/03/18 09:51:20;;;;;;;21.13;2.38;;;14.80;54.60;;;;;;4994787;28;20202;-75
2023/03/18 09:53:52;;;;;;;2.42;1.35;;;14.90;53.30;;;;;;4994692;28;20190;-76
2023/03/18 09:56:23;;;;;;;4.70;1.63;;;15.10;52.90;;;;;;4994869;28;20198;-75
2023/03/18 09:58:55;;;;;;;1.48;1.30;;;15.10;52.70;;;;;;4994767;28;20217;-73
2023/03/18 10:01:26;;;;;;;2.45;1.20;;;15.20;53.40;;;;;;4994741;28;20257;-75
2023/03/18 10:03:59;;;;;;;1.40;0.95;;;15.40;53.50;;;;;;4994682;28;20190;-76
2023/03/18 10:06:26;;;;;;;1.92;1.33;;;15.50;53.10;;;;;;4995255;28;20186;-77
2023/03/18 10:09:02;;;;;;;5.93;1.60;;;15.70;52.70;;;;;;4994562;28;20669;-77
2023/03/18 10:11:33;;;;;;;1.85;1.10;;;15.70;50.50;;;;;;4994684;28;20206;-77
2023/03/18 10:14:18;;;;;;;0.98;0.98;;;15.80;51.80;;;;;;4994645;28;20186;-76
2023/03/18 10:16:58;;;;;;;1.00;1.00;;;15.90;53.40;;;;;;4994873;28;20273;-75
2023/03/18 10:19:25;;;;;;;0.90;0.90;;;16.00;53.20;;;;;;4994584;28;20191;-75
2023/03/18 10:22:02;;;;;;;12.02;1.77;;;;;;;;;;4993808;28;20443;-73
2023/03/18 10:24:32;;;;;;;221.30;7.10;;;;;;;;;;4995019;28;20468;-69
2023/03/18 10:27:09;;;;;;;8.13;1.75;;;16.80;41.60;;;;;;4994387;28;20194;-64
2023/03/18 10:29:41;;;;;;;4.53;1.35;;;16.90;38.40;;;;;;4994168;28;20213;-63
2023/03/18 10:32:17;;;;;;;1.52;1.20;;;16.90;36.50;;;;;;4994161;28;20190;-63
2023/03/18 10:34:57;;;;;;;1.25;1.15;;;16.90;36.50;;;;;;4993815;28;20600;-63
2023/03/18 10:37:33;;;;;;;2.13;0.80;;;16.90;34.70;;;;;;4994262;28;20634;-64
2023/03/18 10:40:00;;;;;;;1.20;0.85;;;16.90;34.70;;;;;;4994455;28;20209;-63
2023/03/18 10:42:30;;;;;;;1.17;1.10;;;16.80;33.20;;;;;;4994264;28;20236;-63
2023/03/18 10:45:07;;;;;;;0.95;0.90;;;16.60;33.80;;;;;;4994375;28;20234;-63
2023/03/18 10:47:41;;;;;;;1.13;1.13;;;16.40;34.30;;;;;;4995946;28;20182;-63
2023/03/18 10:50:17;;;;;;;1.98;1.17;;;16.30;35.20;;;;;;4998441;28;20210;-63
2023/03/18 10:52:50;;;;;;;5.60;1.45;;;16.30;28.00;;;;;;4998254;28;20197;-62
2023/03/18 10:55:21;;;;;;;1.17;1.08;;;16.30;30.10;;;;;;4998157;28;20226;-62
2023/03/18 10:57:48;;;;;;;5.43;1.20;;;16.30;28.90;;;;;;4997972;28;20194;-62
2023/03/18 11:00:26;;;;;;;3.67;1.20;;;16.30;27.60;;;;;;4997755;28;20194;-62
2023/03/18 11:02:55;;;;;;;3.47;1.33;;;16.30;27.70;;;;;;4997460;28;20530;-62
2023/03/18 11:05:25;;;;;;;1.50;1.13;;;16.20;27.40;;;;;;4997346;28;20713;-62
2023/03/18 11:07:58;;;;;;;2.10;1.55;;;16.00;26.90;;;;;;4997517;28;20685;-61
2023/03/18 11:10:27;;;;;;;3.55;1.42;;;15.90;27.60;;;;;;4997651;28;20211;-62
2023/03/18 11:12:58;;;;;;;1.50;1.40;;;15.80;27.70;;;;;;4997383;28;20234;-62
2023/03/18 11:15:25;;;;;;;1.25;1.10;;;15.70;28.20;;;;;;4997582;28;20277;-62
2023/03/18 11:17:58;;;;;;;1.42;1.27;;;15.70;27.90;;;;;;4997254;28;20222;-62
2023/03/18 11:20:36;;;;;;;2.33;1.20;;;15.60;27.20;;;;;;4996936;28;20635;-62
2023/03/18 11:23:11;;;;;;;1.27;1.08;;;15.50;27.30;;;;;;4997214;28;20195;-64
2023/03/18 11:25:39;;;;;;;2.53;1.35;;;15.50;28.00;;;;;;4998007;28;20237;-63
2023/03/18 11:28:18;;;;;;;2.90;1.30;;;15.60;28.30;;;;;;4996812;28;20546;-62
2023/03/18 11:30:49;;;;;;;1.80;1.23;;;15.70;28.00;;;;;;4997067;28;20210;-62
2023/03/18 11:33:18;;;;;;;3.28;1.75;;;15.60;27.90;;;;;;4996762;28;20187;-62
2023/03/18 11:35:47;;;;;;;2.60;1.40;;;15.50;27.90;;;;;;4997049;28;20581;-61
2023/03/18 11:38:19;;;;;;;1.60;1.50;;;15.30;28.30;;;;;;4996819;28;20238;-61
2023/03/18 11:40:46;;;;;;;3.40;1.08;;;15.30;28.80;;;;;;4996882;28;20222;-63
2023/03/18 11:43:18;;;;;;;1.60;1.20;;;15.40;29.30;;;;;;4996890;28;20206;-63
2023/03/18 11:45:50;;;;;;;1.52;1.30;;;15.40;28.90;;;;;;4996841;28;20639;-63
2023/03/18 11:48:29;;;;;;;2.22;1.67;;;15.50;29.80;;;;;;4997041;28;20229;-63
2023/03/18 11:51:05;;;;;;;1.95;1.70;;;15.50;30.20;;;;;;4996579;28;20298;-63
2023/03/18 11:53:47;;;;;;;1.35;1.25;;;15.50;30.90;;;;;;4996660;28;20249;-63
2023/03/18 11:56:21;;;;;;;5.75;2.17;;;15.60;31.70;;;;;;4996770;28;20187;-63
2023/03/18 11:59:04;;;;;;;4.35;2.03;;;15.60;31.30;;;;;;4996084;28;20195;-63
2023/03/18 12:01:43;;;;;;;3.42;1.80;;;15.60;30.50;;;;;;4996474;28;20190;-62
2023/03/18 12:04:41;;;;;;;2.05;1.80;;;15.50;31.20;;;;;;4996391;28;20277;-62
2023/03/18 12:07:22;;;;;;;1.60;1.50;;;15.40;30.30;;;;;;4996436;28;20194;-64
2023/03/18 12:09:55;;;;;;;4.38;1.40;;;15.60;31.30;;;;;;4996245;28;20191;-61
2023/03/18 12:12:44;;;;;;;1.33;1.23;;;15.80;31.90;;;;;;4996294;28;20187;-61
2023/03/18 12:15:24;;;;;;;2.85;2.13;;;15.90;32.30;;;;;;4996064;28;20227;-63
2023/03/18 12:18:00;;;;;;;4.50;2.08;;;15.90;32.00;;;;;;4995799;28;20265;-61
2023/03/18 12:20:42;;;;;;;2.25;1.98;;;15.90;32.00;;;;;;4996149;28;20182;-61
2023/03/18 12:23:21;;;;;;;2.25;2.03;;;15.90;31.30;;;;;;4996022;28;20225;-61
2023/03/18 12:26:15;;;;;;;2.35;2.03;;;15.90;31.20;;;;;;4995439;28;20717;-62
2023/03/18 12:29:06;;;;;;;3.30;2.17;;;15.80;31.30;;;;;;4982203;28;20210;-61
2023/03/18 12:31:47;;;;;;;2.60;1.88;;;15.70;30.90;;;;;;4995752;28;20285;-61
2023/03/18 12:34:27;;;;;;;2.40;1.80;;;15.80;31.80;;;;;;4995519;28;20709;-61
2023/03/18 12:37:09;;;;;;;1.58;1.50;;;15.70;31.00;;;;;;4996423;28;20221;-61
2023/03/18 12:40:05;;;;;;;1.42;1.33;;;15.90;32.10;;;;;;4996015;28;20253;-62
2023/03/18 12:42:47;;;;;;;4.05;1.45;;;16.10;31.40;;;;;;4985664;28;20298;-62
2023/03/18 12:45:18;;;;;;;1.33;1.20;;;16.30;29.60;;;;;;4995918;28;20233;-61
2023/03/18 12:47:48;;;;;;;2.47;1.70;;;16.40;29.50;;;;;;4997834;28;20187;-62
2023/03/18 12:50:18;;;;;;;2.65;2.08;;;16.40;30.40;;;;;;4997031;28;20183;-62
2023/03/18 12:52:50;;;;;;;3.35;2.42;;;16.20;30.30;;;;;;4995309;28;20311;-63
2023/03/18 12:55:21;;;;;;;3.58;2.13;;;16.00;30.30;;;;;;4995506;28;20589;-62
2023/03/18 12:57:50;;;;;;;2.85;2.10;;;15.80;31.40;;;;;;4995340;28;20213;-62
2023/03/18 13:00:23;;;;;;;1.58;1.48;;;15.90;32.30;;;;;;4995307;28;20524;-62
2023/03/18 13:03:02;;;;;;;3.25;1.90;;;16.10;32.20;;;;;;4995112;28;20226;-62
2023/03/18 13:05:37;;;;;;;3.10;1.48;;;16.10;31.90;;;;;;4995131;28;20226;-62
2023/03/18 13:08:31;;;;;;;5.47;2.47;;;16.20;31.80;;;;;;4994817;28;20191;-62
2023/03/18 13:11:07;;;;;;;4.25;2.33;;;16.30;31.60;;;;;;4981225;28;20567;-62
2023/03/18 13:13:37;;;;;;;4.80;2.70;;;16.10;31.80;;;;;;4995020;28;20190;-62
2023/03/18 13:16:05;;;;;;;2.50;1.95;;;16.00;31.40;;;;;;4995089;28;20222;-63
2023/03/18 13:18:38;;;;;;;1.92;1.75;;;16.10;31.70;;;;;;4994315;28;20213;-62
2023/03/18 13:21:07;;;;;;;5.65;2.50;;;16.20;31.80;;;;;;4994764;28;20194;-67
2023/03/18 13:24:08;;;;;;;3.88;2.72;;;16.10;30.40;;;;;;4994724;28;20210;-62
2023/03/18 13:26:51;;;;;;;4.85;2.40;;;16.00;30.80;;;;;;4994746;28;20202;-62
2023/03/18 13:29:25;;;;;;;2.17;1.98;;;15.80;30.00;;;;;;5017101;23;20222;-64
2023/03/18 13:31:59;;;;;;;4.03;2.50;;;15.70;30.60;;;;;;4994824;28;20237;-64
2023/03/18 13:34:58;;;;;;;3.45;2.40;;;15.70;30.00;;;;;;4994617;28;20665;-64
2023/03/18 13:37:54;;;;;;;1.58;1.48;;;15.70;30.90;;;;;;4956382;28;20202;-64
2023/03/18 13:40:42;;;;;;;2.20;1.95;;;16.00;31.70;;;;;;4975764;28;20226;-65
2023/03/18 13:43:14;;;;;;;4.13;1.73;;;16.20;31.00;;;;;;4996885;28;20186;-65
2023/03/18 13:45:45;;;;;;;2.08;1.85;;;16.30;30.90;;;;;;4996918;28;20278;-66
2023/03/18 13:48:17;;;;;;;3.90;2.42;;;16.30;29.80;;;;;;4995680;28;20191;-64
2023/03/18 13:50:45;;;;;;;4.18;2.67;;;16.20;29.80;;;;;;4996693;28;20222;-64
2023/03/18 13:53:25;;;;;;;2.92;1.98;;;16.00;30.10;;;;;;4997208;28;20551;-64
2023/03/18 13:56:01;;;;;;;1.65;1.40;;;16.10;31.10;;;;;;4997335;28;20197;-65
2023/03/18 13:58:32;;;;;;;3.80;2.30;;;16.30;30.70;;;;;;4996447;28;20195;-64
2023/03/18 14:01:37;;;;;;;4.80;2.50;;;16.60;30.70;;;;;;4997155;28;20218;-63
2023/03/18 14:04:31;;;;;;;3.78;2.67;;;16.70;29.70;;;;;;4996760;28;20265;-63
2023/03/18 14:07:13;;;;;;;3.63;2.33;;;16.80;29.70;;;;;;4996674;28;20206;-63
2023/03/18 14:09:52;;;;;;;6.13;2.42;;;17.00;29.90;;;;;;4994710;28;20260;-64
2023/03/18 14:12:37;;;;;;;2.22;2.00;;;16.90;29.40;;;;;;4994726;28;20203;-64
2023/03/18 14:15:28;;;;;;;4.68;2.60;;;17.00;29.90;;;;;;4994729;28;20197;-64
2023/03/18 14:17:57;;;;;;;5.20;2.90;;;16.90;29.20;;;;;;4995254;28;20202;-64
2023/03/18 14:20:36;;;;;;;4.80;2.80;;;16.60;29.60;;;;;;4994256;28;20309;-64
2023/03/18 14:23:38;;;;;;;3.28;2.35;;;16.40;30.10;;;;;;5000800;28;20190;-64
2023/03/18 14:26:08;;;;;;;3.10;2.38;;;16.60;31.30;;;;;;5000522;28;20214;-63
2023/03/18 14:28:46;;;;;;;7.40;3.25;;;16.80;30.10;;;;;;5000202;28;20674;-65
2023/03/18 14:31:32;;;;;;;3.22;2.63;;;16.80;29.70;;;;;;5001155;28;20209;-63
2023/03/18 14:34:32;;;;;;;3.92;3.17;;;16.70;29.80;;;;;;5002006;28;20221;-65
2023/03/18 14:37:28;;;;;;;3.17;2.45;;;16.60;30.00;;;;;;5000923;28;20229;-65
2023/03/18 14:40:03;;;;;;;4.70;2.47;;;16.60;29.80;;;;;;5000997;28;20229;-65
2023/03/18 14:42:35;;;;;;;2.17;2.00;;;16.70;30.80;;;;;;5002184;28;20192;-64
2023/03/18 14:45:15;;;;;;;2.97;2.30;;;16.80;30.50;;;;;;5001454;28;20186;-64
2023/03/18 14:47:45;;;;;;;3.60;2.03;;;16.80;29.70;;;;;;5003041;28;20622;-65
2023/03/18 14:50:21;;;;;;;2.97;2.10;;;16.80;30.40;;;;;;5002344;28;20292;-64
2023/03/18 14:52:54;;;;;;;5.53;2.78;;;16.90;30.50;;;;;;5001479;28;20210;-66
2023/03/18 14:55:25;;;;;;;3.00;2.10;;;16.90;29.30;;;;;;5000844;28;20205;-65
2023/03/18 14:57:52;;;;;;;4.95;2.50;;;16.90;29.40;;;;;;5000791;28;20241;-65
2023/03/18 15:00:23;;;;;;;4.50;2.35;;;16.90;29.30;;;;;;5001694;28;20264;-66
2023/03/18 15:02:57;;;;;;;3.75;2.75;;;16.80;29.70;;;;;;5001856;28;20275;-67
2023/03/18 15:05:25;;;;;;;3.45;2.35;;;16.90;29.40;;;;;;5003269;28;20195;-65
2023/03/18 15:07:53;;;;;;;2.83;2.25;;;16.90;29.30;;;;;;5003037;28;20202;-65
2023/03/18 15:10:24;;;;;;;2.03;1.50;;;16.90;29.30;;;;;;5002754;28;20593;-65
2023/03/18 15:13:06;;;;;;;1.27;1.27;;;16.90;29.00;;;;;;5001304;28;20305;-65
2023/03/18 15:15:34;;;;;;;2.95;2.20;;;16.90;29.00;;;;;;5000910;28;20193;-65
2023/03/18 15:18:17;;;;;;;2.70;1.80;;;16.80;28.80;;;;;;5000142;28;20542;-65
2023/03/18 15:20:45;;;;;;;1.65;1.55;;;16.60;29.10;;;;;;5000286;28;20218;-65
2023/03/18 15:23:13;;;;;;;1.40;1.15;;;16.50;29.50;;;;;;5000261;28;20554;-64
2023/03/18 15:25:43;;;;;;;1.50;1.40;;;16.40;29.50;;;;;;5003139;28;20658;-64
2023/03/18 15:28:18;;;;;;;1.20;1.20;;;16.30;29.60;;;;;;5003257;28;20261;-64
2023/03/18 15:30:54;;;;;;;1.45;1.35;;;16.30;29.80;;;;;;5002947;28;20241;-65
2023/03/18 15:33:26;;;;;;;1.15;0.95;;;16.20;30.00;;;;;;5000041;28;20249;-64
2023/03/18 15:35:57;;;;;;;1.50;1.02;;;16.20;30.60;;;;;;4997015;28;20191;-64
2023/03/18 15:38:28;;;;;;;0.75;0.75;;;16.10;30.50;;;;;;4996961;28;20191;-64
2023/03/18 15:40:58;;;;;;;0.80;0.80;;;16.10;30.60;;;;;;4996512;28;20237;-64
2023/03/18 15:43:40;;;;;;;0.90;0.90;;;16.00;30.70;;;;;;4996980;28;20187;-64
2023/03/18 15:46:15;;;;;;;0.88;0.88;;;16.00;31.40;;;;;;4997064;28;20230;-65
2023/03/18 15:48:51;;;;;;;0.60;0.60;;;15.90;32.20;;;;;;4996863;28;20193;-64
2023/03/18 15:51:27;;;;;;;0.90;0.90;;;15.80;32.90;;;;;;4996662;28;20207;-65
2023/03/18 15:53:56;;;;;;;0.82;0.73;;;15.70;33.90;;;;;;4997586;28;20580;-64
2023/03/18 15:56:28;;;;;;;1.02;1.00;;;15.70;34.70;;;;;;4996907;28;20285;-64
2023/03/18 15:59:04;;;;;;;1.00;1.00;;;15.60;35.80;;;;;;4996991;28;20227;-65
2023/03/18 16:01:32;;;;;;;0.80;0.80;;;15.50;36.70;;;;;;4996741;28;20273;-65
2023/03/18 16:03:59;;;;;;;1.02;0.93;;;15.40;38.50;;;;;;4997294;28;20192;-64
2023/03/18 16:06:26;;;;;;;0.80;0.80;;;15.30;39.80;;;;;;4996726;28;20207;-65
2023/03/18 16:08:53;;;;;;;1.40;1.30;;;15.30;41.00;;;;;;4996705;28;20238;-65
2023/03/18 16:11:21;;;;;;;1.52;1.27;;;15.20;42.30;;;;;;4996297;28;20207;-65
2023/03/18 16:13:48;;;;;;;1.30;1.23;;;15.10;43.20;;;;;;4996639;28;20202;-66
2023/03/18 16:16:21;;;;;;;1.20;1.10;;;15.00;44.40;;;;;;4996375;28;20569;-66
2023/03/18 16:18:49;;;;;;;1.00;1.00;;;14.90;45.70;;;;;;4996371;28;20198;-64
2023/03/18 16:21:15;;;;;;;0.95;0.95;;;14.80;47.30;;;;;;4996339;28;20214;-65
2023/03/18 16:23:43;;;;;;;2.40;1.20;;;14.70;48.20;;;;;;4996258;28;20203;-64
2023/03/18 16:26:16;;;;;;;0.80;0.80;;;14.60;49.40;;;;;;4996193;28;20213;-64
2023/03/18 16:28:44;;;;;;;1.02;1.02;;;14.50;50.60;;;;;;4995937;28;20224;-64
2023/03/18 16:31:11;;;;;;;1.75;0.80;;;14.30;51.50;;;;;;4996122;28;20186;-64
2023/03/18 16:33:39;;;;;;;0.70;0.70;;;14.30;52.10;;;;;;4996275;28;20213;-63
2023/03/18 16:36:15;;;;;;;2.05;1.27;;;14.10;52.80;;;;;;4996394;28;20203;-64
2023/03/18 16:38:42;;;;;;;2.10;1.50;;;14.10;53.60;;;;;;4995514;28;20554;-64
2023/03/18 16:41:09;;;;;;;1.60;1.50;;;14.00;55.00;;;;;;4995769;28;20206;-64
2023/03/18 16:43:35;;;;;;;1.20;1.20;;;13.90;56.40;;;;;;4995424;28;20202;-64
2023/03/18 16:46:04;;;;;;;1.65;1.55;;;13.90;56.90;;;;;;4994723;28;20213;-65
2023/03/18 16:48:31;;;;;;;1.35;1.35;;;13.80;57.10;;;;;;4995623;28;20209;-65
2023/03/18 16:50:58;;;;;;;1.13;1.13;;;13.70;57.90;;;;;;4995452;28;20226;-64
2023/03/18 16:53:28;;;;;;;0.80;0.80;;;13.60;59.30;;;;;;4995339;28;20574;-63
2023/03/18 16:55:58;;;;;;;1.23;1.23;;;13.50;61.70;;;;;;4995555;28;20205;-64
2023/03/18 16:58:28;;;;;;;5.10;3.28;;;13.40;63.80;;;;;;4996106;28;20195;-64
2023/03/18 17:00:55;;;;;;;3.88;3.10;;;13.30;65.30;;;;;;4996083;28;20225;-64
2023/03/18 17:03:22;;;;;;;4.07;3.08;;;13.20;66.40;;;;;;4995404;28;20198;-63
2023/03/18 17:05:50;;;;;;;5.70;2.30;;;13.10;68.10;;;;;;4996838;28;20669;-63
2023/03/18 17:08:18;;;;;;;1.98;1.75;;;13.00;69.40;;;;;;5005723;28;20202;-64
2023/03/18 17:10:48;;;;;;;2.05;1.65;;;12.90;70.00;;;;;;5004198;28;20254;-64
2023/03/18 17:13:18;;;;;;;1.45;1.27;;;12.80;72.10;;;;;;5001566;28;20258;-64
2023/03/18 17:15:45;;;;;;;1.20;1.10;;;12.70;73.40;;;;;;4995083;28;20202;-63
2023/03/18 17:18:17;;;;;;;1.30;1.20;;;12.60;74.80;;;;;;4995858;28;20213;-63
2023/03/18 17:20:46;;;;;;;1.25;0.90;;;12.50;76.90;;;;;;4995105;28;20222;-64
2023/03/18 17:23:16;;;;;;;0.88;0.82;;;12.40;80.20;;;;;;4994751;28;20577;-63
2023/03/18 17:25:48;;;;;;;1.02;1.02;;;12.30;83.40;;;;;;4995098;28;20191;-63
2023/03/18 17:28:23;;;;;;;1.58;0.80;;;12.30;85.20;;;;;;4995521;28;20191;-63
2023/03/18 17:30:51;;;;;;;1.20;1.10;;;12.10;85.60;;;;;;4994650;28;20240;-65
2023/03/18 17:33:23;;;;;;;1.00;1.00;;;12.00;87.80;;;;;;4994810;28;20273;-63
2023/03/18 17:35:50;;;;;;;0.98;0.98;;;11.90;89.40;;;;;;4994647;28;20650;-63
2023/03/18 17:38:17;;;;;;;0.95;0.95;;;11.80;90.50;;;;;;4995015;28;20605;-64
2023/03/18 17:40:46;;;;;;;1.50;1.40;;;11.70;91.70;;;;;;4994406;28;20235;-65
2023/03/18 17:43:18;;;;;;;1.00;1.00;;;11.60;92.40;;;;;;4994850;28;20218;-64
2023/03/18 17:45:45;;;;;;;1.88;1.00;;;11.50;93.40;;;;;;4994364;28;20558;-64
2023/03/18 17:48:18;;;;;;;0.95;0.73;;;11.50;94.70;;;;;;4994586;28;20627;-64
2023/03/18 17:50:46;;;;;;;1.08;0.95;;;11.40;96.40;;;;;;4995184;28;20219;-63
2023/03/18 17:53:25;;;;;;;1.10;1.00;;;11.20;99.30;;;;;;4994916;28;20222;-64
2023/03/18 17:55:53;;;;;;;1.23;1.00;;;11.10;99.90;;;;;;4994079;28;20198;-63
2023/03/18 17:58:23;;;;;;;2.95;1.10;;;11.00;99.90;;;;;;4994857;28;20309;-65
2023/03/18 18:00:52;;;;;;;1.77;0.98;;;10.90;99.90;;;;;;4994284;28;20258;-64
2023/03/18 18:03:23;;;;;;;1.27;0.90;;;10.90;99.90;;;;;;4994467;28;20617;-65
2023/03/18 18:05:50;;;;;;;0.90;0.90;;;10.80;99.90;;;;;;4994655;28;20190;-64
2023/03/18 18:08:18;;;;;;;1.58;1.10;;;10.70;99.90;;;;;;4994521;28;20199;-64
2023/03/18 18:10:45;;;;;;;0.98;0.98;;;10.60;99.90;;;;;;4994232;28;20226;-64
2023/03/18 18:13:17;;;;;;;0.88;0.88;;;10.60;99.90;;;;;;4994118;28;20229;-64
2023/03/18 18:15:46;;;;;;;1.20;1.10;;;10.50;99.90;;;;;;4994145;28;20554;-64
2023/03/18 18:18:21;;;;;;;0.80;0.80;;;10.40;99.90;;;;;;4994146;28;20198;-64
2023/03/18 18:20:52;;;;;;;0.90;0.90;;;10.30;99.90;;;;;;4994197;28;20228;-64
2023/03/18 18:23:24;;;;;;;2.92;1.10;;;10.20;99.90;;;;;;4993851;28;20531;-64
2023/03/18 18:25:50;;;;;;;1.15;1.00;;;10.10;99.90;;;;;;4993866;28;20668;-64
2023/03/18 18:28:19;;;;;;;1.05;1.05;;;9.90;99.90;;;;;;4994147;28;20202;-64
2023/03/18 18:30:48;;;;;;;1.15;1.15;;;9.80;99.90;;;;;;4993692;28;20229;-64
2023/03/18 18:33:15;;;;;;;1.10;1.10;;;9.70;99.90;;;;;;4994211;28;20254;-64
2023/03/18 18:35:42;;;;;;;1.48;1.20;;;9.70;99.90;;;;;;4994005;28;20281;-64
2023/03/18 18:38:09;;;;;;;1.73;1.35;;;9.60;99.90;;;;;;4994006;28;20224;-64
2023/03/18 18:40:36;;;;;;;1.08;0.98;;;9.50;99.90;;;;;;4993986;28;20254;-64
2023/03/18 18:43:03;;;;;;;1.10;1.10;;;9.50;99.90;;;;;;4993950;28;20202;-64
2023/03/18 18:45:30;;;;;;;1.33;1.10;;;9.40;99.90;;;;;;4993826;28;20569;-63
2023/03/18 18:47:58;;;;;;;1.08;1.05;;;9.40;99.90;;;;;;4993907;28;20202;-62
2023/03/18 18:50:28;;;;;;;1.05;1.00;;;9.40;99.90;;;;;;4993929;28;20230;-62
2023/03/18 18:52:54;;;;;;;1.20;1.10;;;9.30;99.90;;;;;;4994136;28;20252;-63
2023/03/18 18:55:21;;;;;;;1.20;1.20;;;9.30;99.90;;;;;;4993650;28;20582;-62
2023/03/18 18:57:48;;;;;;;0.98;0.98;;;9.30;99.90;;;;;;4994016;28;20297;-63
2023/03/18 19:00:16;;;;;;;0.80;0.80;;;9.40;99.90;;;;;;4994017;28;20223;-63
2023/03/18 19:02:44;;;;;;;0.90;0.90;;;9.40;99.90;;;;;;4994069;28;20198;-63
2023/03/18 19:05:15;;;;;;;0.95;0.95;;;9.40;99.90;;;;;;4993883;28;20573;-63
2023/03/18 19:07:42;;;;;;;1.25;1.25;;;9.40;99.90;;;;;;4993616;28;20657;-63
2023/03/18 19:10:12;;;;;;;1.10;1.10;;;9.40;99.90;;;;;;4997096;28;20280;-63
2023/03/18 19:12:39;;;;;;;2.05;1.13;;;9.40;99.90;;;;;;4997117;28;20241;-63
2023/03/18 19:15:06;;;;;;;1.00;1.00;;;9.40;99.90;;;;;;4997356;28;20202;-63
2023/03/18 19:17:33;;;;;;;0.90;0.90;;;9.40;99.90;;;;;;4997403;28;20234;-63
2023/03/18 19:20:00;;;;;;;0.95;0.95;;;9.30;99.90;;;;;;4997316;28;20258;-63
2023/03/18 19:22:29;;;;;;;1.08;0.98;;;9.30;99.90;;;;;;4997329;28;20203;-63
2023/03/18 19:24:56;;;;;;;1.00;1.00;;;9.30;99.90;;;;;;4997200;28;20203;-63
2023/03/18 19:27:25;;;;;;;0.90;0.90;;;9.30;99.90;;;;;;4998264;28;20206;-63
2023/03/18 19:29:53;;;;;;;1.08;1.08;;;9.20;99.90;;;;;;4997489;28;20230;-63
2023/03/18 19:32:21;;;;;;;0.95;0.95;;;9.20;99.90;;;;;;4996995;28;20211;-63
2023/03/18 19:34:50;;;;;;;0.88;0.88;;;9.20;99.90;;;;;;4997061;28;20202;-63
2023/03/18 19:37:18;;;;;;;0.75;0.75;;;9.20;99.90;;;;;;4997012;28;20210;-63
2023/03/18 19:39:47;;;;;;;1.65;0.90;;;9.20;99.90;;;;;;4996840;28;20266;-63
2023/03/18 19:42:14;;;;;;;0.85;0.85;;;9.20;99.90;;;;;;4996816;28;20202;-63
2023/03/18 19:44:42;;;;;;;1.10;1.00;;;9.20;99.90;;;;;;4996832;28;20218;-63
2023/03/18 19:47:15;;;;;;;1.17;1.17;;;9.10;99.90;;;;;;4996535;28;20693;-63
2023/03/18 19:49:42;;;;;;;0.80;0.80;;;9.10;99.90;;;;;;4997097;28;20227;-63
2023/03/18 19:52:16;;;;;;;1.08;1.08;;;9.10;99.90;;;;;;4996631;28;20207;-63
2023/03/18 19:54:43;;;;;;;1.10;1.10;;;9.10;99.90;;;;;;4996648;28;20191;-63
2023/03/18 19:57:16;;;;;;;1.30;1.02;;;9.10;99.90;;;;;;4996477;28;20205;-63
2023/03/18 19:59:44;;;;;;;1.00;0.95;;;9.00;99.90;;;;;;4996734;28;20254;-63
2023/03/18 20:02:20;;;;;;;1.42;1.33;;;9.00;99.90;;;;;;4996704;28;20238;-63
2023/03/18 20:04:48;;;;;;;1.35;1.27;;;9.00;99.90;;;;;;4996621;28;20286;-63
2023/03/18 20:07:15;;;;;;;2.30;1.02;;;9.00;99.90;;;;;;4996592;28;20203;-63
2023/03/18 20:09:42;;;;;;;1.80;1.70;;;9.00;99.90;;;;;;4996284;28;20258;-63
2023/03/18 20:12:21;;;;;;;2.35;1.20;;;9.00;99.90;;;;;;4996436;28;20250;-63
2023/03/18 20:14:48;;;;;;;2.28;1.77;;;9.00;99.90;;;;;;4996287;28;20205;-63
2023/03/18 20:17:31;;;;;;;2.33;2.15;;;9.00;99.90;;;;;;4996223;28;20207;-63
2023/03/18 20:19:57;;;;;;;2.33;2.15;;;9.00;99.90;;;;;;4995835;28;20226;-63
2023/03/18 20:22:27;;;;;;;1.65;1.65;;;8.90;99.90;;;;;;4996165;28;20226;-63
2023/03/18 20:24:54;;;;;;;1.88;1.77;;;9.00;99.90;;;;;;4995692;28;20667;-63
2023/03/18 20:27:22;;;;;;;1.63;1.52;;;8.90;99.90;;;;;;4996027;28;20211;-61
2023/03/18 20:29:50;;;;;;;2.50;2.30;;;8.90;99.90;;;;;;4995828;28;20234;-64
2023/03/18 20:32:16;;;;;;;1.83;1.73;;;8.90;99.90;;;;;;4996022;28;20211;-62
2023/03/18 20:34:45;;;;;;;2.65;1.70;;;8.90;99.90;;;;;;4995816;28;20233;-62
2023/03/18 20:37:21;;;;;;;1.52;1.52;;;8.90;99.90;;;;;;4996718;28;20203;-62
2023/03/18 20:39:48;;;;;;;1.48;1.40;;;8.80;99.90;;;;;;4995707;28;20720;-62
2023/03/18 20:42:16;;;;;;;1.48;1.38;;;8.80;99.90;;;;;;4995502;28;20689;-62
2023/03/18 20:44:45;;;;;;;1.20;1.10;;;8.80;99.90;;;;;;4995829;28;20222;-62
2023/03/18 20:47:12;;;;;;;1.20;1.20;;;8.70;99.90;;;;;;4995459;28;20202;-61
2023/03/18 20:49:40;;;;;;;1.20;1.20;;;8.70;99.90;;;;;;4996114;28;20219;-61
2023/03/18 20:52:13;;;;;;;2.15;1.20;;;8.70;99.90;;;;;;4995238;28;20202;-61